CheckWX is a tool to help pilots better visualize weather data.  It is not intended as a substitute for an official pre-flight weather briefing.

06:00:43 UTC

KCKZ METAR
Pennridge Airport
Perkasie, Pennsylvania, USA
Current

26 mins ago

KCKZ 310535Z AUTO 04003KT 10SM BKN036 BKN044 OVC070 07/07 A2997 RMK AO2
Observed
Mar-31 @ 05:35 UTC
Wind
  • 040° at 3 KTS
Visibility
10 SM
Flight Rules
VFR
Cloud Levels
  • Broken at 3,600' AGL
  • Broken at 4,400' AGL
  • Overcast at 7,000' AGL
Temperature
C / 45°F
Dewpoint
C / 45°F
Humidity
100%
Altimeter
29.97" Hg
Pressure
1014.92 hPa
Previous

46 mins ago

KCKZ 310515Z AUTO 00000KT 10SM FEW029 BKN035 OVC044 07/07 A2996 RMK AO2
Observed
Mar-31 @ 05:15 UTC
Visibility
10 SM
Flight Rules
VFR
Cloud Levels
  • Few at 2,900' AGL
  • Broken at 3,500' AGL
  • Overcast at 4,400' AGL
Temperature
C / 45°F
Dewpoint
C / 45°F
Humidity
100%
Altimeter
29.96" Hg
Pressure
1014.52 hPa
Previous

1 hour ago

KCKZ 310455Z AUTO 00000KT 10SM -RA SCT027 OVC034 07/07 A2998 RMK AO2 P0001
Observed
Mar-31 @ 04:55 UTC
Visibility
10 SM
Flight Rules
VFR
Conditions
Light Rain
Cloud Levels
  • Scattered at 2,700' AGL
  • Overcast at 3,400' AGL
Temperature
C / 45°F
Dewpoint
C / 45°F
Humidity
100%
Altimeter
29.98" Hg
Pressure
1015.22 hPa
Current Rain
0.01"